createdAt,value
2022-12-03T00:01:20.769Z,0.51
2022-12-03T00:03:52.462Z,0.77
2022-12-03T00:06:24.125Z,0.88
2022-12-03T00:08:54.938Z,0.98
2022-12-03T00:11:25.354Z,1.06
2022-12-03T00:13:55.877Z,1.11
2022-12-03T00:16:26.431Z,1.16
2022-12-03T00:18:58.487Z,1.04
2022-12-03T00:21:28.976Z,1.22
2022-12-03T00:24:00.959Z,1.18
2022-12-03T00:26:31.439Z,1.21
2022-12-03T00:29:01.884Z,1.27
2022-12-03T00:31:33.762Z,1.25
2022-12-03T00:34:04.239Z,1.22
2022-12-03T00:36:34.796Z,1.38
2022-12-03T00:39:05.710Z,1.36
2022-12-03T00:41:37.400Z,1.37
2022-12-03T00:44:07.970Z,1.50
2022-12-03T00:46:38.759Z,1.45
2022-12-03T00:49:10.581Z,1.37
2022-12-03T00:51:41.035Z,1.37
2022-12-03T00:54:11.564Z,1.39
2022-12-03T00:56:41.972Z,1.39
2022-12-03T00:59:12.580Z,1.36
2022-12-03T01:01:43.018Z,1.47
2022-12-03T01:04:14.889Z,1.40
2022-12-03T01:06:46.519Z,1.35
2022-12-03T01:09:17.085Z,1.43
2022-12-03T01:11:47.546Z,1.38
2022-12-03T01:14:20.873Z,1.35
2022-12-03T01:16:51.360Z,1.40
2022-12-03T01:19:21.896Z,1.38
2022-12-03T01:21:53.233Z,1.35
2022-12-03T01:24:23.908Z,1.00
2022-12-03T01:26:56.062Z,0.84
2022-12-03T01:29:26.952Z,1.00
2022-12-03T01:32:15.088Z,0.90
2022-12-03T01:34:52.688Z,1.01
2022-12-03T01:37:27.172Z,1.10
2022-12-03T01:39:58.012Z,0.93
2022-12-03T01:42:31.315Z,1.17
2022-12-03T01:45:04.281Z,0.88
2022-12-03T01:47:39.040Z,0.89
2022-12-03T01:50:15.944Z,1.04
2022-12-03T01:52:47.054Z,0.94
2022-12-03T01:55:20.405Z,1.02
2022-12-03T01:57:53.853Z,1.09
2022-12-03T02:00:30.451Z,0.90
2022-12-03T02:03:07.060Z,1.07
2022-12-03T02:05:38.973Z,0.94
2022-12-03T02:08:30.464Z,0.89
2022-12-03T02:11:09.610Z,0.89
2022-12-03T02:13:40.088Z,0.92
2022-12-03T02:16:11.428Z,0.96
2022-12-03T02:18:42.597Z,0.83
2022-12-03T02:21:30.934Z,0.73
2022-12-03T02:24:36.286Z,1.00
2022-12-03T02:27:07.461Z,0.94
2022-12-03T02:29:37.913Z,1.05
2022-12-03T02:32:08.581Z,0.99
2022-12-03T02:34:44.664Z,1.09
2022-12-03T02:37:20.565Z,1.13
2022-12-03T02:39:53.947Z,0.80
2022-12-03T02:42:38.093Z,0.87
2022-12-03T02:45:15.271Z,0.96
2022-12-03T02:47:54.779Z,1.00
2022-12-03T02:50:28.173Z,0.91
2022-12-03T02:53:01.115Z,1.06
2022-12-03T02:55:37.107Z,0.92
2022-12-03T02:58:07.468Z,1.01
2022-12-03T03:00:38.936Z,0.84
2022-12-03T03:03:10.504Z,0.98
2022-12-03T03:05:42.202Z,1.12
2022-12-03T03:08:13.661Z,1.09
2022-12-03T03:10:45.704Z,0.80
2022-12-03T03:13:18.918Z,1.13
2022-12-03T03:15:50.029Z,1.18
2022-12-03T03:18:20.636Z,1.08
2022-12-03T03:20:51.993Z,0.99
2022-12-03T03:23:25.478Z,1.06
2022-12-03T03:26:05.670Z,0.82
2022-12-03T03:28:39.125Z,0.97
2022-12-03T03:31:13.735Z,0.76
2022-12-03T03:33:46.821Z,0.98
2022-12-03T03:36:17.871Z,0.78
2022-12-03T03:38:48.921Z,0.88
2022-12-03T03:41:21.017Z,1.04
2022-12-03T03:43:51.804Z,1.02
2022-12-03T03:46:23.023Z,1.02
2022-12-03T03:48:54.653Z,1.00
2022-12-03T03:51:25.125Z,1.21
2022-12-03T03:53:56.116Z,0.98
2022-12-03T03:56:28.404Z,1.22
2022-12-03T03:58:59.307Z,1.22
2022-12-03T04:01:30.134Z,1.26
2022-12-03T04:04:02.064Z,1.40
2022-12-03T04:06:33.644Z,1.22
2022-12-03T04:09:05.268Z,1.25
2022-12-03T04:11:53.607Z,0.99
2022-12-03T04:14:25.369Z,0.75
2022-12-03T04:16:55.989Z,1.03
2022-12-03T04:19:26.559Z,1.20
2022-12-03T04:22:15.091Z,0.98
2022-12-03T04:24:45.632Z,0.90
2022-12-03T04:27:35.084Z,0.90
2022-12-03T04:30:05.909Z,1.13
2022-12-03T04:32:54.482Z,1.33
2022-12-03T04:35:43.418Z,1.23
2022-12-03T04:38:16.377Z,1.56
2022-12-03T04:41:02.007Z,1.18
2022-12-03T04:43:32.997Z,1.18
2022-12-03T04:46:03.955Z,1.99
2022-12-03T04:48:34.426Z,1.80
2022-12-03T04:51:04.942Z,1.67
2022-12-03T04:53:36.438Z,1.51
2022-12-03T04:56:08.403Z,1.29
2022-12-03T04:58:38.874Z,1.62
2022-12-03T05:01:10.040Z,1.36
2022-12-03T05:03:40.517Z,1.60
2022-12-03T05:06:11.313Z,1.57
2022-12-03T05:08:41.798Z,1.53
2022-12-03T05:11:12.316Z,1.28
2022-12-03T05:13:43.276Z,1.45
2022-12-03T05:16:13.950Z,1.50
2022-12-03T05:18:44.481Z,1.46
2022-12-03T05:21:14.899Z,1.31
2022-12-03T05:23:45.363Z,1.55
2022-12-03T05:26:16.145Z,1.29
2022-12-03T05:28:46.698Z,1.43
2022-12-03T05:31:17.388Z,1.44
2022-12-03T05:33:47.837Z,1.44
2022-12-03T05:36:18.315Z,1.30
2022-12-03T05:38:48.970Z,1.10
2022-12-03T05:41:37.283Z,1.16
2022-12-03T05:44:07.761Z,1.23
2022-12-03T05:46:38.312Z,1.37
2022-12-03T05:49:08.766Z,1.40
2022-12-03T05:51:39.265Z,1.33
2022-12-03T05:54:10.874Z,1.10
2022-12-03T05:56:42.587Z,1.25
2022-12-03T05:59:13.068Z,1.34
2022-12-03T06:01:44.732Z,1.12
2022-12-03T06:04:15.124Z,1.39
2022-12-03T06:06:46.722Z,1.52
2022-12-03T06:09:18.205Z,1.61
2022-12-03T06:11:51.535Z,1.62
2022-12-03T06:14:22.725Z,1.49
2022-12-03T06:16:54.521Z,1.60
2022-12-03T06:19:24.914Z,1.66
2022-12-03T06:21:55.792Z,1.64
2022-12-03T06:24:26.114Z,1.53
2022-12-03T06:26:56.518Z,1.65
2022-12-03T06:29:26.994Z,1.55
2022-12-03T06:31:57.510Z,1.50
2022-12-03T06:34:28.000Z,1.65
2022-12-03T06:36:58.611Z,1.56
2022-12-03T06:39:29.198Z,1.54
2022-12-03T06:41:59.672Z,1.68
2022-12-03T06:44:30.084Z,1.66
2022-12-03T06:47:00.671Z,1.66
2022-12-03T06:49:31.147Z,1.72
2022-12-03T06:52:02.973Z,1.63
2022-12-03T06:54:33.480Z,1.79
2022-12-03T06:57:04.080Z,1.75
2022-12-03T06:59:36.263Z,1.74
2022-12-03T07:02:08.003Z,1.77
2022-12-03T07:04:42.127Z,1.74
2022-12-03T07:07:11.832Z,1.66
2022-12-03T07:09:42.345Z,1.71
2022-12-03T07:12:12.834Z,1.77
2022-12-03T07:14:43.350Z,1.80
2022-12-03T07:17:13.765Z,1.80
2022-12-03T07:19:44.315Z,1.78
2022-12-03T07:22:14.772Z,1.75
2022-12-03T07:24:47.189Z,1.77
2022-12-03T07:27:17.686Z,1.82
2022-12-03T07:29:48.256Z,1.84
2022-12-03T07:32:18.745Z,1.85
2022-12-03T07:34:49.280Z,1.84
2022-12-03T07:37:23.037Z,1.88
2022-12-03T07:39:52.728Z,1.89
2022-12-03T07:42:23.089Z,1.85
2022-12-03T07:44:53.903Z,1.89
2022-12-03T07:47:24.662Z,1.89
2022-12-03T07:49:55.299Z,2.05
2022-12-03T07:52:25.798Z,2.01
2022-12-03T07:54:56.572Z,1.99
2022-12-03T07:57:27.265Z,1.99
2022-12-03T07:59:58.998Z,1.90
2022-12-03T08:02:29.483Z,1.89
2022-12-03T08:05:00.012Z,1.97
2022-12-03T08:07:30.573Z,1.96
2022-12-03T08:10:01.132Z,1.98
2022-12-03T08:12:42.841Z,2.01
2022-12-03T08:15:24.645Z,2.08
2022-12-03T08:18:00.031Z,2.10
2022-12-03T08:20:30.914Z,2.11
2022-12-03T08:23:02.644Z,2.54
2022-12-03T08:25:34.778Z,2.38
2022-12-03T08:28:21.539Z,2.21
2022-12-03T08:30:58.636Z,2.17
2022-12-03T08:33:33.725Z,2.72
2022-12-03T08:36:10.813Z,2.34
2022-12-03T08:38:41.128Z,2.81
2022-12-03T08:41:18.338Z,2.56
2022-12-03T08:43:49.893Z,2.40
2022-12-03T08:46:21.032Z,2.38
2022-12-03T08:48:52.617Z,2.33
2022-12-03T08:51:28.430Z,2.26
2022-12-03T08:54:07.151Z,2.33
2022-12-03T08:56:38.868Z,2.34
2022-12-03T08:59:21.319Z,2.31
2022-12-03T09:01:53.864Z,2.42
2022-12-03T09:04:40.769Z,2.16
2022-12-03T09:07:11.272Z,2.48
2022-12-03T09:09:41.726Z,2.59
2022-12-03T09:12:13.570Z,2.50
2022-12-03T09:14:44.036Z,2.63
2022-12-03T09:17:14.423Z,2.54
2022-12-03T09:19:46.498Z,2.41
2022-12-03T09:22:17.610Z,2.66
2022-12-03T09:24:48.159Z,2.56
2022-12-03T09:27:18.900Z,2.59
2022-12-03T09:29:51.407Z,2.75
2022-12-03T09:32:22.008Z,2.55
2022-12-03T09:34:52.857Z,2.22
2022-12-03T09:37:24.796Z,2.68
2022-12-03T09:39:55.193Z,2.75
2022-12-03T09:42:27.267Z,2.88
2022-12-03T09:44:57.765Z,2.86
2022-12-03T09:47:29.918Z,2.88
2022-12-03T09:50:01.174Z,2.89
2022-12-03T09:52:34.983Z,2.91
2022-12-03T09:55:15.477Z,2.87
2022-12-03T09:57:46.047Z,2.96
2022-12-03T10:00:23.559Z,2.89
2022-12-03T10:02:56.743Z,3.11
2022-12-03T10:05:27.613Z,3.21
2022-12-03T10:08:02.268Z,2.93
2022-12-03T10:10:32.852Z,3.00
2022-12-03T10:13:04.280Z,2.84
2022-12-03T10:15:37.907Z,3.00
2022-12-03T10:18:14.053Z,2.49
2022-12-03T10:20:44.681Z,2.62
2022-12-03T10:23:27.629Z,2.76
2022-12-03T10:26:03.921Z,2.89
2022-12-03T10:28:37.282Z,2.88
2022-12-03T10:31:11.723Z,2.77
2022-12-03T10:33:45.249Z,2.72
2022-12-03T10:36:27.707Z,2.96
2022-12-03T10:39:13.044Z,2.87
2022-12-03T10:41:45.680Z,3.01
2022-12-03T10:44:21.926Z,2.80
2022-12-03T10:47:10.702Z,2.74
2022-12-03T10:49:45.264Z,2.57
2022-12-03T10:52:24.075Z,2.60
2022-12-03T10:54:52.380Z,2.63
2022-12-03T10:57:25.821Z,2.33
2022-12-03T10:59:56.295Z,2.42
2022-12-03T11:02:27.188Z,2.31
2022-12-03T11:04:57.718Z,2.72
2022-12-03T11:07:29.712Z,2.50
2022-12-03T11:10:01.952Z,2.41
2022-12-03T11:12:35.785Z,2.63
2022-12-03T11:15:08.070Z,2.76
2022-12-03T11:17:45.300Z,2.57
2022-12-03T11:20:22.626Z,2.28
2022-12-03T11:22:52.982Z,2.38
2022-12-03T11:25:32.340Z,2.37
2022-12-03T11:28:17.993Z,2.47
2022-12-03T11:30:56.822Z,2.40
2022-12-03T11:33:44.791Z,2.59
2022-12-03T11:36:31.554Z,2.79
2022-12-03T11:38:54.651Z,2.93
2022-12-03T11:41:30.965Z,2.61
2022-12-03T11:44:23.473Z,2.47
2022-12-03T11:46:54.444Z,2.38
2022-12-03T11:49:30.832Z,2.55
2022-12-03T11:52:04.484Z,2.10
2022-12-03T11:54:36.323Z,2.10
2022-12-03T11:57:09.790Z,2.39
2022-12-03T11:59:43.512Z,2.36
2022-12-03T12:02:21.483Z,2.38
2022-12-03T12:04:52.048Z,2.41
2022-12-03T12:07:38.634Z,2.38
2022-12-03T12:10:09.856Z,2.35
2022-12-03T12:12:51.131Z,2.39
2022-12-03T12:15:43.570Z,2.31
2022-12-03T12:18:45.098Z,2.27
2022-12-03T12:21:43.326Z,2.50
2022-12-03T12:24:40.743Z,2.34
2022-12-03T12:27:24.735Z,2.61
2022-12-03T12:30:01.939Z,2.52
2022-12-03T12:32:35.271Z,2.41
2022-12-03T12:35:32.422Z,2.48
2022-12-03T12:38:12.866Z,2.23
2022-12-03T12:40:49.280Z,2.50
2022-12-03T12:43:26.310Z,2.40
2022-12-03T12:46:05.698Z,3.29
2022-12-03T12:48:36.337Z,2.84
2022-12-03T12:51:14.496Z,2.43
2022-12-03T12:53:46.670Z,2.38
2022-12-03T12:56:31.585Z,2.37
2022-12-03T12:59:20.165Z,2.45
2022-12-03T13:01:51.823Z,2.68
2022-12-03T13:04:25.227Z,2.54
2022-12-03T13:06:57.035Z,2.07
2022-12-03T13:09:28.861Z,2.39
2022-12-03T13:12:03.361Z,2.35
2022-12-03T13:14:36.822Z,2.55
2022-12-03T13:17:18.595Z,2.40
2022-12-03T13:19:55.887Z,2.32
2022-12-03T13:22:25.001Z,2.44
2022-12-03T13:24:58.744Z,2.47
2022-12-03T13:27:32.870Z,2.32
2022-12-03T13:30:12.077Z,2.35
2022-12-03T13:32:44.284Z,2.49
2022-12-03T13:35:31.365Z,2.34
2022-12-03T13:38:01.785Z,2.22
2022-12-03T13:40:36.037Z,2.30
2022-12-03T13:43:08.309Z,2.42
2022-12-03T13:45:41.214Z,2.98
2022-12-03T13:48:26.533Z,2.24
2022-12-03T13:50:58.834Z,2.38
2022-12-03T13:53:37.907Z,2.14
2022-12-03T13:56:17.010Z,2.13
2022-12-03T13:58:47.523Z,2.42
2022-12-03T14:01:18.101Z,2.26
2022-12-03T14:03:50.118Z,2.23
2022-12-03T14:06:20.946Z,2.29
2022-12-03T14:08:51.691Z,2.39
2022-12-03T14:11:41.174Z,2.28
2022-12-03T14:14:12.982Z,2.33
2022-12-03T14:16:44.666Z,2.25
2022-12-03T14:19:15.126Z,2.42
2022-12-03T14:21:45.539Z,2.28
2022-12-03T14:24:16.010Z,2.26
2022-12-03T14:26:46.526Z,2.21
2022-12-03T14:29:17.015Z,2.30
2022-12-03T14:31:48.788Z,2.24
2022-12-03T14:34:19.434Z,2.40
2022-12-03T14:36:50.003Z,2.20
2022-12-03T14:39:20.486Z,2.17
2022-12-03T14:42:08.846Z,2.17
2022-12-03T14:44:39.294Z,1.98
2022-12-03T14:47:10.111Z,2.13
2022-12-03T14:49:41.885Z,2.14
2022-12-03T14:52:12.949Z,1.89
2022-12-03T14:54:43.800Z,1.85
2022-12-03T14:57:16.607Z,2.23
2022-12-03T14:59:47.263Z,2.26
2022-12-03T15:02:17.833Z,2.22
2022-12-03T15:04:48.393Z,2.19
2022-12-03T15:07:20.227Z,2.15
2022-12-03T15:09:50.723Z,2.06
2022-12-03T15:12:21.211Z,2.08
2022-12-03T15:14:51.792Z,2.24
2022-12-03T15:17:31.365Z,2.32
2022-12-03T15:19:56.084Z,2.21
2022-12-03T15:22:26.870Z,2.35
2022-12-03T15:24:57.413Z,2.00
2022-12-03T15:27:27.970Z,2.05
2022-12-03T15:29:59.727Z,2.26
2022-12-03T15:32:30.242Z,2.04
2022-12-03T15:35:00.680Z,1.82
2022-12-03T15:37:31.225Z,2.12
2022-12-03T15:40:02.952Z,2.01
2022-12-03T15:42:33.523Z,1.86
2022-12-03T15:45:04.428Z,1.98
2022-12-03T15:47:35.141Z,1.80
2022-12-03T15:50:06.290Z,1.92
2022-12-03T15:52:37.860Z,1.92
2022-12-03T15:55:08.942Z,1.88
2022-12-03T15:57:39.712Z,1.94
2022-12-03T16:00:13.082Z,1.96
2022-12-03T16:02:47.634Z,2.15
2022-12-03T16:05:16.188Z,2.22
2022-12-03T16:07:46.912Z,2.21
2022-12-03T16:10:20.119Z,1.99
2022-12-03T16:12:50.768Z,2.00
2022-12-03T16:15:27.054Z,2.08
2022-12-03T16:17:54.754Z,1.77
2022-12-03T16:20:25.347Z,1.99
2022-12-03T16:22:55.959Z,2.21
2022-12-03T16:25:26.473Z,2.29
2022-12-03T16:27:57.160Z,2.12
2022-12-03T16:30:27.803Z,2.06
2022-12-03T16:32:58.416Z,1.86
2022-12-03T16:35:29.212Z,2.00
2022-12-03T16:37:59.793Z,1.87
2022-12-03T16:40:30.331Z,1.96
2022-12-03T16:43:00.856Z,2.14
2022-12-03T16:45:43.037Z,2.21
2022-12-03T16:48:13.594Z,2.24
2022-12-03T16:50:45.407Z,2.05
2022-12-03T16:53:17.154Z,2.32
2022-12-03T16:55:47.656Z,2.26
2022-12-03T16:58:21.001Z,2.32
2022-12-03T17:00:54.417Z,2.41
2022-12-03T17:03:30.385Z,2.36
2022-12-03T17:05:57.333Z,2.50
2022-12-03T17:08:27.873Z,2.43
2022-12-03T17:10:58.909Z,2.21
2022-12-03T17:13:29.557Z,2.49
2022-12-03T17:16:01.008Z,2.46
2022-12-03T17:18:32.734Z,2.45
2022-12-03T17:21:03.234Z,2.48
2022-12-03T17:23:35.004Z,2.66
2022-12-03T17:26:06.672Z,2.23
2022-12-03T17:28:37.270Z,2.42
2022-12-03T17:31:09.026Z,2.43
2022-12-03T17:33:41.327Z,2.25
2022-12-03T17:36:12.047Z,2.43
2022-12-03T17:38:42.465Z,2.43
2022-12-03T17:41:12.921Z,2.55
2022-12-03T17:43:43.483Z,2.55
2022-12-03T17:46:14.106Z,2.64
2022-12-03T17:48:45.909Z,2.76
2022-12-03T17:51:16.424Z,2.45
2022-12-03T17:53:46.887Z,2.30
2022-12-03T17:56:17.840Z,2.73
2022-12-03T17:58:48.428Z,2.83
2022-12-03T18:01:19.031Z,2.69
2022-12-03T18:03:49.751Z,2.71
2022-12-03T18:06:21.474Z,2.64
2022-12-03T18:08:53.129Z,2.64
2022-12-03T18:11:23.980Z,2.73
2022-12-03T18:13:54.549Z,2.33
2022-12-03T18:16:25.094Z,2.75
2022-12-03T18:18:57.685Z,2.37
2022-12-03T18:21:28.892Z,2.76
2022-12-03T18:24:02.506Z,2.79
2022-12-03T18:26:33.187Z,2.57
2022-12-03T18:29:03.707Z,2.92
2022-12-03T18:31:34.265Z,3.01
2022-12-03T18:34:04.767Z,2.90
2022-12-03T18:36:36.945Z,2.68
2022-12-03T18:39:09.491Z,2.67
2022-12-03T18:41:40.086Z,2.53
2022-12-03T18:44:12.670Z,2.55
2022-12-03T18:46:53.332Z,2.50
2022-12-03T18:49:16.753Z,2.66
2022-12-03T18:51:48.468Z,2.81
2022-12-03T18:54:20.656Z,2.64
2022-12-03T18:56:51.074Z,2.62
2022-12-03T18:59:21.573Z,2.61
2022-12-03T19:01:53.276Z,2.45
2022-12-03T19:04:23.827Z,2.58
2022-12-03T19:06:55.287Z,2.63
2022-12-03T19:09:25.750Z,2.60
2022-12-03T19:11:56.230Z,2.55
2022-12-03T19:14:27.879Z,2.57
2022-12-03T19:16:58.411Z,2.37
2022-12-03T19:19:30.157Z,2.71
2022-12-03T19:22:00.618Z,2.76
2022-12-03T19:24:31.045Z,2.68
2022-12-03T19:27:02.583Z,2.92
2022-12-03T19:29:34.165Z,2.42
2022-12-03T19:32:04.834Z,2.72
2022-12-03T19:34:35.379Z,2.64
2022-12-03T19:37:06.989Z,2.74
2022-12-03T19:39:37.610Z,2.54
2022-12-03T19:42:08.134Z,2.83
2022-12-03T19:44:39.325Z,2.81
2022-12-03T19:47:09.717Z,2.58
2022-12-03T19:49:40.136Z,2.72
2022-12-03T19:52:10.619Z,2.87
2022-12-03T19:54:41.148Z,2.67
2022-12-03T19:57:11.662Z,2.52
2022-12-03T19:59:43.076Z,2.74
2022-12-03T20:02:14.044Z,2.80
2022-12-03T20:04:44.790Z,2.70
2022-12-03T20:07:16.520Z,2.83
2022-12-03T20:09:47.051Z,2.92
2022-12-03T20:12:17.556Z,2.84
2022-12-03T20:14:48.733Z,2.95
2022-12-03T20:17:19.195Z,2.92
2022-12-03T20:19:51.724Z,2.64
2022-12-03T20:22:22.257Z,3.08
2022-12-03T20:24:52.789Z,2.89
2022-12-03T20:27:23.336Z,2.85
2022-12-03T20:29:54.192Z,2.86
2022-12-03T20:32:24.844Z,3.07
2022-12-03T20:34:55.698Z,2.86
2022-12-03T20:37:26.424Z,3.07
2022-12-03T20:39:58.152Z,3.10
2022-12-03T20:42:28.770Z,2.75
2022-12-03T20:45:00.437Z,3.16
2022-12-03T20:47:30.864Z,2.82
2022-12-03T20:50:01.285Z,2.96
2022-12-03T20:52:31.712Z,2.80
2022-12-03T20:55:02.253Z,2.92
2022-12-03T20:57:32.844Z,2.98
2022-12-03T21:00:08.155Z,3.11
2022-12-03T21:02:43.344Z,3.15
2022-12-03T21:05:16.424Z,3.05
2022-12-03T21:07:49.383Z,2.97
2022-12-03T21:10:25.426Z,3.08
2022-12-03T21:12:59.397Z,3.10
2022-12-03T21:15:31.343Z,3.12
2022-12-03T21:18:04.403Z,3.23
2022-12-03T21:20:37.594Z,2.93
2022-12-03T21:23:10.161Z,2.87
2022-12-03T21:25:46.129Z,3.24
2022-12-03T21:28:19.059Z,3.34
2022-12-03T21:30:52.594Z,3.42
2022-12-03T21:33:27.484Z,3.52
2022-12-03T21:36:00.486Z,3.68
2022-12-03T21:38:33.622Z,3.59
2022-12-03T21:41:07.081Z,3.77
2022-12-03T21:43:40.540Z,3.83
2022-12-03T21:47:09.359Z,3.83
2022-12-03T21:48:54.140Z,3.57
2022-12-03T21:51:26.129Z,3.73
2022-12-03T21:53:59.687Z,3.69
2022-12-03T21:56:36.317Z,3.75
2022-12-03T21:59:08.330Z,3.36
2022-12-03T22:01:46.769Z,3.50
2022-12-03T22:04:18.240Z,3.42
2022-12-03T22:06:54.312Z,3.22
2022-12-03T22:09:27.784Z,3.49
2022-12-03T22:12:02.068Z,3.65
2022-12-03T22:14:33.371Z,3.53
2022-12-03T22:17:06.716Z,3.71
2022-12-03T22:19:40.474Z,3.64
2022-12-03T22:22:16.487Z,3.57
2022-12-03T22:24:50.294Z,3.59
2022-12-03T22:27:24.403Z,3.53
2022-12-03T22:29:55.864Z,3.56
2022-12-03T22:32:27.777Z,3.63
2022-12-03T22:35:00.502Z,3.48
2022-12-03T22:37:34.150Z,3.37
2022-12-03T22:40:08.704Z,3.67
2022-12-03T22:42:49.312Z,3.59
2022-12-03T22:45:16.800Z,3.64
2022-12-03T22:47:52.705Z,3.45
2022-12-03T22:50:27.597Z,3.70
2022-12-03T22:52:59.048Z,3.75
2022-12-03T22:55:31.778Z,3.79
2022-12-03T22:58:05.426Z,3.89
2022-12-03T23:00:40.162Z,4.04
2022-12-03T23:03:11.452Z,3.92
2022-12-03T23:05:43.830Z,4.09
2022-12-03T23:08:21.271Z,3.83
2022-12-03T23:10:54.471Z,4.08
2022-12-03T23:13:27.193Z,4.03
2022-12-03T23:15:58.991Z,3.93
2022-12-03T23:18:35.990Z,3.81
2022-12-03T23:21:07.540Z,3.93
2022-12-03T23:23:41.454Z,3.85
2022-12-03T23:26:15.163Z,3.92
2022-12-03T23:28:51.847Z,4.09
2022-12-03T23:31:30.303Z,3.95
2022-12-03T23:34:04.727Z,4.19
2022-12-03T23:36:36.339Z,4.13
2022-12-03T23:39:06.728Z,3.72
2022-12-03T23:41:38.250Z,3.86
2022-12-03T23:44:08.727Z,3.85
2022-12-03T23:46:40.944Z,3.77
2022-12-03T23:49:11.624Z,3.85
2022-12-03T23:51:42.159Z,3.70
2022-12-03T23:54:13.790Z,3.65
2022-12-03T23:56:44.331Z,3.67
2022-12-03T23:59:16.173Z,3.75
